Terminal Aerodrome Forecast
Issued by NWS

Home | Current Version | Previous Version | Text Only | Print | Product List | Glossary On
Versions: 1 2 3 4 5 6 7 8 9 10 11 12 13 14
000
FTUS44 KLZK 261138
TAFLIT
TAF
KLIT 261138Z 2612/2712 VRB03KT P6SM BKN120 OVC200
     FM261500 15005KT P6SM VCSH SCT080 OVC120
      TEMPO 2618/2622 -TSRA SCT035 BKN050CB
     FM270000 10003KT P6SM SCT100 SCT250
     FM270600 VRB02KT P6SM SCT250=

USA.gov is the U.S. government's official web portal to all federal, state and local government web resources and services.